Time;durP1;ratioP1;P1;durP2;ratioP2;P2;SDS_P1;SDS_P2;PMS_P1;PMS_P2;Temp;Humidity;BMP_temperature;BMP_pressure;BME280_temperature;BME280_humidity;BME280_pressure;Samples;Min_cycle;Max_cycle;Signal;HPM_P1;HPM_P2
2022/06/22 00:00:11;;;;;;;6.27;5.20;;;11.80;77.30;;;;;;5074388;28;20681;-83
2022/06/22 00:02:40;;;;;;;7.03;4.97;;;11.90;77.10;;;;;;5075794;28;20660;-83
2022/06/22 00:05:14;;;;;;;6.47;4.80;;;11.90;76.90;;;;;;5074545;28;20258;-83
2022/06/22 00:07:45;;;;;;;6.13;5.10;;;11.80;76.70;;;;;;5076142;28;20515;-84
2022/06/22 00:10:16;;;;;;;8.87;5.53;;;11.80;76.50;;;;;;5074388;28;20203;-84
2022/06/22 00:12:48;;;;;;;6.57;5.97;;;11.70;76.80;;;;;;5075657;28;20156;-83
2022/06/22 00:15:35;;;;;;;11.27;7.37;;;11.60;78.00;;;;;;5075908;28;20218;-82
2022/06/22 00:18:03;;;;;;;7.83;6.80;;;11.30;79.70;;;;;;5075466;28;20186;-81
2022/06/22 00:20:31;;;;;;;8.03;6.47;;;11.30;80.30;;;;;;5075577;28;20211;-83
2022/06/22 00:22:57;;;;;;;8.87;5.67;;;11.20;80.10;;;;;;5075419;28;20225;-83
2022/06/22 00:25:32;;;;;;;7.63;5.93;;;11.30;80.00;;;;;;5075476;28;20172;-83
2022/06/22 00:28:28;;;;;;;7.77;6.73;;;11.30;79.60;;;;;;5075807;28;20237;-82
2022/06/22 00:31:15;;;;;;;7.73;5.97;;;11.30;79.10;;;;;;5075211;28;20191;-83
2022/06/22 00:34:26;;;;;;;7.53;6.77;;;11.30;78.70;;;;;;5075433;28;20645;-85
2022/06/22 00:37:01;;;;;;;9.77;7.30;;;11.40;78.70;;;;;;5074966;28;20183;-83
2022/06/22 00:39:29;;;;;;;16.90;6.47;;;11.30;81.40;;;;;;5074952;28;20178;-84
2022/06/22 00:42:16;;;;;;;7.70;6.83;;;11.30;82.20;;;;;;5075066;28;20672;-83
2022/06/22 00:44:46;;;;;;;11.33;6.43;;;11.20;83.60;;;;;;5075097;28;20148;-84
2022/06/22 00:47:27;;;;;;;6.37;5.77;;;11.20;83.80;;;;;;5074984;28;20168;-83
2022/06/22 00:49:56;;;;;;;12.73;6.77;;;11.30;83.20;;;;;;5074838;28;20190;-84
2022/06/22 00:52:36;;;;;;;8.83;7.00;;;11.20;83.40;;;;;;5073586;28;20178;-84
2022/06/22 00:55:04;;;;;;;7.67;6.87;;;11.00;84.20;;;;;;5075193;28;20697;-84
2022/06/22 00:57:36;;;;;;;8.03;7.23;;;11.00;84.50;;;;;;5074589;28;20278;-83
2022/06/22 01:00:14;;;;;;;9.80;7.33;;;11.00;84.70;;;;;;5074742;28;20202;-84
2022/06/22 01:02:45;;;;;;;10.43;7.00;;;11.00;84.80;;;;;;5073410;28;20201;-84
2022/06/22 01:05:36;;;;;;;10.10;7.13;;;11.00;84.40;;;;;;5074800;28;20614;-84
2022/06/22 01:08:27;;;;;;;6.80;6.17;;;11.10;83.90;;;;;;5074753;28;20156;-84
2022/06/22 01:12:16;;;;;;;11.83;6.30;;;11.10;83.30;;;;;;5074794;28;20294;-83
2022/06/22 01:13:58;;;;;;;11.83;7.50;;;11.10;82.60;;;;;;5074771;28;20183;-84
2022/06/22 01:16:30;;;;;;;10.30;6.73;;;11.00;83.10;;;;;;5074739;28;20577;-84
2022/06/22 01:19:05;;;;;;;9.00;6.67;;;11.00;83.30;;;;;;5074063;28;20152;-84
2022/06/22 01:21:39;;;;;;;9.20;5.93;;;11.10;82.60;;;;;;5074122;28;20252;-84
2022/06/22 01:24:15;;;;;;;6.53;5.93;;;10.90;82.50;;;;;;5074439;28;20176;-84
2022/06/22 01:27:18;;;;;;;8.60;6.10;;;10.90;82.50;;;;;;5075397;28;20234;-86
2022/06/22 01:29:54;;;;;;;8.80;5.87;;;10.80;82.20;;;;;;5073251;28;20561;-86
2022/06/22 01:32:26;;;;;;;7.93;5.70;;;10.80;81.70;;;;;;5074452;28;20202;-85
2022/06/22 01:34:57;;;;;;;9.00;5.90;;;10.70;81.30;;;;;;5074588;28;20156;-86
2022/06/22 01:37:29;;;;;;;8.70;6.20;;;10.70;81.10;;;;;;5074444;28;20152;-86
2022/06/22 01:40:25;;;;;;;8.13;6.57;;;10.70;80.70;;;;;;5074124;28;20191;-86
2022/06/22 01:43:13;;;;;;;8.33;6.47;;;10.70;80.30;;;;;;5074054;28;20187;-85
2022/06/22 01:45:52;;;;;;;8.60;7.07;;;10.70;79.80;;;;;;5074620;28;20522;-86
2022/06/22 01:48:26;;;;;;;8.77;6.87;;;10.70;79.60;;;;;;5074176;28;20151;-85
2022/06/22 01:51:13;;;;;;;9.63;7.57;;;10.60;79.40;;;;;;5073816;28;20210;-85
2022/06/22 01:53:57;;;;;;;9.23;8.33;;;10.60;79.20;;;;;;5073720;28;20167;-85
2022/06/22 01:56:39;;;;;;;8.83;7.87;;;10.60;79.20;;;;;;5073929;28;20657;-85
2022/06/22 01:59:23;;;;;;;39.87;9.67;;;10.60;80.00;;;;;;5073698;28;20510;-85
2022/06/22 02:02:00;;;;;;;12.70;10.23;;;10.50;80.50;;;;;;5073807;28;20191;-86
2022/06/22 02:04:42;;;;;;;13.73;10.83;;;10.30;82.00;;;;;;5073569;28;20152;-85
2022/06/22 02:10:17;;;;;;;13.83;12.33;;;10.30;83.20;;;;;;5073790;28;20704;-85
2022/06/22 02:13:00;;;;;;;17.87;12.53;;;10.30;84.00;;;;;;5073752;28;20147;-85
2022/06/22 02:15:49;;;;;;;11.90;10.80;;;10.30;83.60;;;;;;5073442;28;20159;-85
2022/06/22 02:18:36;;;;;;;13.47;10.37;;;10.30;82.90;;;;;;5073694;28;20163;-85
2022/06/22 02:21:27;;;;;;;11.77;9.07;;;10.30;82.40;;;;;;5073235;28;20214;-85
2022/06/22 02:24:00;;;;;;;181.53;13.83;;;10.40;82.80;;;;;;5073338;28;20163;-85
2022/06/22 02:26:39;;;;;;;162.53;13.67;;;10.30;82.40;;;;;;5073570;28;20166;-86
2022/06/22 02:29:04;;;;;;;9.70;8.87;;;10.30;83.00;;;;;;5073391;28;20156;-85
2022/06/22 02:31:32;;;;;;;10.13;8.40;;;10.30;83.00;;;;;;5072266;28;20714;-86
2022/06/22 02:33:58;;;;;;;9.80;8.83;;;10.30;82.70;;;;;;5073379;28;20536;-85
2022/06/22 02:36:27;;;;;;;8.53;7.03;;;10.30;82.30;;;;;;5073232;28;20168;-85
2022/06/22 02:38:55;;;;;;;9.10;7.63;;;10.20;82.30;;;;;;5073240;28;20167;-85
2022/06/22 02:44:29;;;;;;;6.27;5.73;;;9.10;83.00;;;;;;5073360;28;20159;-85
2022/06/22 02:47:16;;;;;;;9.80;6.73;;;9.00;84.00;;;;;;5073060;28;20219;-85
2022/06/22 02:49:49;;;;;;;9.83;5.97;;;9.00;84.60;;;;;;5073293;28;20219;-85
2022/06/22 02:52:16;;;;;;;6.53;5.93;;;9.10;84.50;;;;;;5073205;28;20234;-85
2022/06/22 02:54:50;;;;;;;9.33;6.83;;;9.20;84.30;;;;;;5071783;28;20638;-85
2022/06/22 02:57:48;;;;;;;7.10;6.50;;;9.20;83.80;;;;;;5072924;28;20190;-85
2022/06/22 03:00:16;;;;;;;8.50;5.50;;;9.20;84.00;;;;;;5072966;28;20191;-85
2022/06/22 03:02:42;;;;;;;11.67;5.70;;;9.20;83.90;;;;;;5072885;28;20171;-85
2022/06/22 03:05:09;;;;;;;6.50;5.90;;;9.20;83.60;;;;;;5073238;28;20167;-85
2022/06/22 03:07:38;;;;;;;9.37;6.77;;;9.20;83.40;;;;;;5072928;28;20284;-85
2022/06/22 03:10:05;;;;;;;8.33;6.80;;;9.00;83.90;;;;;;5073153;28;20237;-85
2022/06/22 03:12:31;;;;;;;13.60;7.63;;;9.00;84.40;;;;;;5072794;28;20160;-85
2022/06/22 03:15:07;;;;;;;12.20;7.50;;;9.00;84.60;;;;;;5071638;28;20179;-85
2022/06/22 03:17:38;;;;;;;9.70;5.57;;;8.90;84.70;;;;;;5071773;28;20512;-85
2022/06/22 03:20:18;;;;;;;6.03;5.53;;;8.80;84.90;;;;;;5072704;28;20214;-85
2022/06/22 03:22:56;;;;;;;5.80;5.27;;;8.80;85.20;;;;;;5073012;28;20160;-86
2022/06/22 03:25:47;;;;;;;6.20;5.63;;;9.00;85.20;;;;;;5073242;28;20540;-86
2022/06/22 03:28:32;;;;;;;8.00;5.03;;;9.10;85.00;;;;;;5072821;28;20186;-85
2022/06/22 03:31:04;;;;;;;9.57;4.57;;;9.20;84.80;;;;;;5072807;28;20704;-85
2022/06/22 03:33:36;;;;;;;6.20;4.23;;;9.20;84.00;;;;;;5072772;28;20179;-85
2022/06/22 03:36:09;;;;;;;13.30;4.13;;;9.30;83.90;;;;;;5072881;28;20250;-86
2022/06/22 03:38:46;;;;;;;14.40;3.83;;;9.30;83.50;;;;;;5072646;28;20518;-86
2022/06/22 03:41:17;;;;;;;12.47;3.53;;;9.40;83.40;;;;;;5072511;28;20203;-86
2022/06/22 03:43:57;;;;;;;4.83;3.27;;;9.60;83.00;;;;;;5075803;28;20178;-86
2022/06/22 03:46:37;;;;;;;4.70;3.90;;;9.80;82.70;;;;;;5076178;28;20156;-86
2022/06/22 03:49:10;;;;;;;3.53;3.20;;;10.00;83.00;;;;;;5076109;28;20179;-86
2022/06/22 03:52:04;;;;;;;5.00;3.30;;;10.30;82.40;;;;;;5076270;28;20206;-86
2022/06/22 03:54:45;;;;;;;4.13;3.70;;;10.60;81.30;;;;;;5076110;28;20217;-86
2022/06/22 03:57:14;;;;;;;5.40;4.73;;;10.50;80.80;;;;;;5076540;28;20244;-86
2022/06/22 03:59:42;;;;;;;19.50;6.27;;;10.30;80.90;;;;;;5075947;28;20198;-86
2022/06/22 04:02:08;;;;;;;31.43;7.40;;;10.20;82.20;;;;;;5075760;28;20237;-86
2022/06/22 04:04:33;;;;;;;91.47;11.30;;;10.10;83.90;;;;;;5075875;28;20168;-87
2022/06/22 04:06:59;;;;;;;160.03;13.93;;;10.00;86.00;;;;;;5075808;28;20179;-86
2022/06/22 04:09:28;;;;;;;106.57;14.53;;;10.10;86.70;;;;;;5075632;28;20175;-86
2022/06/22 04:12:02;;;;;;;90.77;13.20;;;10.10;86.90;;;;;;5075693;28;20543;-86
2022/06/22 04:14:49;;;;;;;14.13;11.00;;;10.20;87.20;;;;;;5075780;28;20166;-86
2022/06/22 04:17:23;;;;;;;87.70;11.93;;;10.30;87.30;;;;;;5075670;28;20181;-85
2022/06/22 04:19:58;;;;;;;12.53;10.67;;;10.40;87.40;;;;;;5075731;28;20195;-86
2022/06/22 04:22:27;;;;;;;13.87;12.47;;;10.50;87.70;;;;;;5075562;28;20167;-86
2022/06/22 04:25:11;;;;;;;82.60;17.40;;;10.60;88.00;;;;;;5075410;28;20301;-86
2022/06/22 04:27:41;;;;;;;366.90;25.23;;;10.80;88.50;;;;;;5074203;28;20206;-86
2022/06/22 04:30:21;;;;;;;412.07;30.13;;;11.00;89.30;;;;;;5075340;28;20191;-86
2022/06/22 04:33:01;;;;;;;190.50;22.73;;;11.00;90.00;;;;;;5075246;28;20155;-86
2022/06/22 04:35:31;;;;;;;186.40;24.23;;;11.10;90.20;;;;;;5075204;28;20164;-86
2022/06/22 04:38:06;;;;;;;189.53;24.13;;;11.20;90.70;;;;;;5075183;28;20160;-86
2022/06/22 04:40:37;;;;;;;224.43;26.30;;;11.30;91.20;;;;;;5075050;28;20199;-86
2022/06/22 04:43:04;;;;;;;184.50;26.70;;;11.40;91.70;;;;;;5073878;28;20159;-86
2022/06/22 04:45:37;;;;;;;26.87;22.83;;;11.40;91.90;;;;;;5075071;28;20168;-87
2022/06/22 04:48:08;;;;;;;74.67;26.87;;;11.60;92.20;;;;;;5075046;28;20548;-86
2022/06/22 04:50:36;;;;;;;136.43;28.93;;;11.60;92.20;;;;;;5075167;28;20706;-86
2022/06/22 04:53:04;;;;;;;157.57;34.03;;;11.70;92.50;;;;;;5073434;28;20549;-86
2022/06/22 04:55:33;;;;;;;235.50;32.40;;;11.90;92.80;;;;;;5074029;28;20182;-86
2022/06/22 04:58:03;;;;;;;48.27;28.23;;;11.90;93.00;;;;;;5074612;28;20193;-86
2022/06/22 05:00:31;;;;;;;198.60;31.73;;;11.90;93.20;;;;;;5074556;28;20199;-86
2022/06/22 05:03:05;;;;;;;89.57;32.83;;;12.00;93.30;;;;;;5074724;28;20198;-86
2022/06/22 05:05:34;;;;;;;57.43;35.27;;;12.10;93.50;;;;;;5074934;28;20194;-86
2022/06/22 05:08:24;;;;;;;48.47;33.53;;;12.20;93.70;;;;;;5074521;28;20163;-86
2022/06/22 05:10:55;;;;;;;55.47;36.10;;;12.30;93.70;;;;;;5074560;28;20278;-86
2022/06/22 05:13:27;;;;;;;43.70;33.37;;;12.50;93.80;;;;;;5074549;28;20528;-86
2022/06/22 05:15:56;;;;;;;45.07;33.87;;;12.60;93.90;;;;;;5074721;28;20156;-86
2022/06/22 05:18:25;;;;;;;51.50;33.80;;;12.70;93.90;;;;;;5074450;28;20221;-86
2022/06/22 05:20:59;;;;;;;41.93;32.20;;;12.70;93.90;;;;;;5074155;28;20249;-86
2022/06/22 05:23:27;;;;;;;47.13;32.73;;;12.80;93.90;;;;;;5073113;28;20160;-86
2022/06/22 05:25:55;;;;;;;36.67;30.73;;;12.80;93.90;;;;;;5074159;28;20168;-86
2022/06/22 05:28:42;;;;;;;43.43;29.83;;;12.80;93.80;;;;;;5074192;28;20168;-86
2022/06/22 05:31:28;;;;;;;41.00;29.83;;;12.80;93.80;;;;;;5074197;28;20584;-86
2022/06/22 05:33:59;;;;;;;46.33;28.47;;;13.10;93.80;;;;;;5074211;28;20238;-86
2022/06/22 05:36:27;;;;;;;35.73;27.83;;;13.20;93.70;;;;;;5074269;28;20191;-86
2022/06/22 05:38:57;;;;;;;35.97;26.40;;;13.30;93.70;;;;;;5075354;28;20179;-86
2022/06/22 05:41:29;;;;;;;29.90;24.97;;;13.20;93.30;;;;;;5073931;28;20740;-86
2022/06/22 05:43:58;;;;;;;31.03;24.80;;;13.40;93.30;;;;;;5072670;28;20156;-85
2022/06/22 05:46:25;;;;;;;32.17;24.13;;;13.60;93.30;;;;;;5073847;28;20191;-86
2022/06/22 05:48:51;;;;;;;30.23;24.43;;;13.80;93.20;;;;;;5073757;28;20645;-87
2022/06/22 05:51:27;;;;;;;28.73;23.20;;;13.70;92.80;;;;;;5073804;28;20183;-86
2022/06/22 05:54:10;;;;;;;29.07;22.87;;;13.70;92.00;;;;;;5074036;28;20559;-87
2022/06/22 05:57:00;;;;;;;23.80;20.83;;;13.90;92.20;;;;;;5073517;28;20273;-86
2022/06/22 05:59:37;;;;;;;29.57;18.33;;;14.20;91.70;;;;;;5073675;28;20160;-87
2022/06/22 06:02:17;;;;;;;20.37;17.27;;;14.30;91.50;;;;;;5073911;28;20226;-86
2022/06/22 06:04:53;;;;;;;27.20;18.83;;;14.30;90.80;;;;;;5073454;28;20247;-86
2022/06/22 06:07:23;;;;;;;24.70;16.00;;;14.40;90.70;;;;;;5073918;28;20162;-86
2022/06/22 06:09:49;;;;;;;22.63;14.87;;;14.80;90.50;;;;;;5073477;28;20195;-86
2022/06/22 06:12:20;;;;;;;19.30;13.97;;;14.90;89.80;;;;;;5073504;28;20676;-86
2022/06/22 06:14:50;;;;;;;19.83;13.90;;;14.90;88.90;;;;;;5073781;28;20237;-87
2022/06/22 06:17:26;;;;;;;15.40;10.97;;;15.20;89.10;;;;;;5073479;28;20167;-87
2022/06/22 06:19:53;;;;;;;14.87;10.50;;;15.30;88.20;;;;;;5073600;28;20210;-86
2022/06/22 06:22:22;;;;;;;16.75;10.40;;;15.50;87.60;;;;;;5073322;28;20206;-86
2022/06/22 06:27:43;;;;;;;21.90;10.27;;;15.70;86.60;;;;;;5073608;28;20524;-86
2022/06/22 06:30:20;;;;;;;20.52;9.02;;;15.70;86.40;;;;;;5073334;28;20191;-86
2022/06/22 06:32:58;;;;;;;15.93;8.32;;;16.00;86.00;;;;;;5073101;28;20260;-86
2022/06/22 06:35:45;;;;;;;15.30;8.13;;;16.00;85.10;;;;;;5073177;28;20166;-86
2022/06/22 06:38:24;;;;;;;16.85;8.75;;;16.00;84.60;;;;;;5071895;28;20721;-86
2022/06/22 06:41:10;;;;;;;18.23;8.52;;;16.20;84.70;;;;;;5073108;28;20294;-86
2022/06/22 06:43:36;;;;;;;15.30;8.93;;;16.20;84.10;;;;;;5073640;28;20583;-86
2022/06/22 06:46:08;;;;;;;16.75;8.32;;;16.20;83.30;;;;;;5073662;28;20218;-86
2022/06/22 06:48:36;;;;;;;19.63;8.32;;;16.30;83.00;;;;;;5072635;28;20160;-86
2022/06/22 06:51:04;;;;;;;17.13;9.07;;;16.50;82.80;;;;;;5073066;28;20624;-87
2022/06/22 06:53:41;;;;;;;14.30;8.18;;;16.70;82.40;;;;;;5073067;28;20179;-86
2022/06/22 06:56:16;;;;;;;14.88;9.23;;;16.70;81.30;;;;;;5073131;28;20179;-87
2022/06/22 06:58:45;;;;;;;16.73;8.57;;;16.80;80.90;;;;;;5073127;28;20157;-89
2022/06/22 07:01:21;;;;;;;12.48;8.13;;;16.90;81.20;;;;;;5072970;28;20203;-87
2022/06/22 07:03:49;;;;;;;13.23;7.15;;;17.10;79.90;;;;;;5073095;28;20155;-88
2022/06/22 07:06:14;;;;;;;19.00;8.23;;;17.20;78.90;;;;;;5073096;28;20236;-88
2022/06/22 07:08:51;;;;;;;15.50;7.80;;;17.20;78.20;;;;;;5072987;28;20218;-87
2022/06/22 07:11:37;;;;;;;13.13;7.47;;;17.30;78.30;;;;;;5072990;28;20229;-87
2022/06/22 07:14:15;;;;;;;14.82;7.65;;;17.10;77.40;;;;;;5072921;28;20637;-87
2022/06/22 07:16:41;;;;;;;21.80;10.10;;;17.00;77.40;;;;;;5072833;28;20172;-88
2022/06/22 07:19:28;;;;;;;20.02;10.25;;;17.10;78.30;;;;;;5076779;28;20197;-87
2022/06/22 07:22:09;;;;;;;16.70;10.95;;;17.10;79.20;;;;;;5076752;28;20191;-87
2022/06/22 07:24:59;;;;;;;19.33;10.45;;;16.70;79.30;;;;;;5077127;28;20148;-88
2022/06/22 07:27:42;;;;;;;19.02;10.50;;;16.70;80.30;;;;;;5075393;28;20159;-87
2022/06/22 07:30:26;;;;;;;16.30;9.23;;;16.70;80.50;;;;;;5076495;28;20194;-87
2022/06/22 07:32:54;;;;;;;17.45;8.93;;;17.10;80.30;;;;;;5075267;28;20198;-87
2022/06/22 07:35:24;;;;;;;19.73;9.07;;;17.30;78.50;;;;;;5076636;28;20171;-88
2022/06/22 07:38:03;;;;;;;14.43;8.57;;;17.50;77.60;;;;;;5076735;28;20166;-87
2022/06/22 07:40:30;;;;;;;15.40;8.85;;;17.50;77.00;;;;;;5076162;28;20206;-86
2022/06/22 07:42:58;;;;;;;15.07;9.77;;;17.20;78.90;;;;;;5076576;28;20638;-87
2022/06/22 07:45:25;;;;;;;17.65;8.77;;;17.00;78.80;;;;;;5076889;28;20595;-85
2022/06/22 07:48:13;;;;;;;17.73;8.52;;;16.80;79.90;;;;;;5076315;28;20174;-85
2022/06/22 07:50:50;;;;;;;17.00;9.32;;;17.00;79.50;;;;;;5076090;28;20199;-86
2022/06/22 07:53:29;;;;;;;14.60;8.45;;;17.20;78.20;;;;;;5076172;28;20242;-85
2022/06/22 07:56:11;;;;;;;21.33;10.07;;;17.00;79.10;;;;;;5076112;28;20213;-86
2022/06/22 07:59:01;;;;;;;19.08;8.27;;;17.30;79.00;;;;;;5075988;28;20175;-86
2022/06/22 08:01:33;;;;;;;16.88;8.45;;;17.70;77.10;;;;;;5074690;28;20293;-86
2022/06/22 08:04:20;;;;;;;17.83;7.78;;;18.00;76.50;;;;;;5076210;28;20171;-86
2022/06/22 08:07:08;;;;;;;9.95;7.72;;;18.10;75.10;;;;;;5075859;28;20168;-85
2022/06/22 08:09:46;;;;;;;15.88;8.40;;;18.20;76.00;;;;;;5075703;28;20520;-86
2022/06/22 08:12:21;;;;;;;17.80;8.60;;;18.20;75.50;;;;;;5075921;28;20159;-86
2022/06/22 08:14:49;;;;;;;16.95;8.45;;;18.30;75.20;;;;;;5075821;28;20569;-85
2022/06/22 08:17:36;;;;;;;18.60;8.85;;;18.30;75.60;;;;;;5075679;28;20251;-86
2022/06/22 08:20:03;;;;;;;14.40;8.77;;;18.50;75.40;;;;;;5076206;28;20704;-86
2022/06/22 08:22:29;;;;;;;13.50;8.25;;;18.50;75.30;;;;;;5074226;28;20211;-85
2022/06/22 08:24:57;;;;;;;15.85;8.02;;;18.70;75.00;;;;;;5075696;28;20642;-86
2022/06/22 08:27:24;;;;;;;11.85;6.93;;;18.80;72.20;;;;;;5074306;28;20171;-86
2022/06/22 08:29:52;;;;;;;11.07;7.03;;;19.10;72.00;;;;;;5075230;28;20183;-86
2022/06/22 08:32:33;;;;;;;14.13;7.45;;;19.20;71.60;;;;;;5075544;28;20218;-86
2022/06/22 08:35:10;;;;;;;15.48;7.00;;;19.00;70.30;;;;;;5075565;28;20158;-87
2022/06/22 08:37:57;;;;;;;14.38;7.85;;;19.00;72.10;;;;;;5075991;28;20167;-88
2022/06/22 08:40:44;;;;;;;16.10;8.82;;;19.20;69.60;;;;;;5075303;28;20191;-87
2022/06/22 08:43:34;;;;;;;16.65;8.43;;;19.00;71.20;;;;;;5075371;28;20160;-87
2022/06/22 08:46:22;;;;;;;18.70;8.18;;;19.00;72.70;;;;;;5075567;28;20189;-87
2022/06/22 08:49:02;;;;;;;14.80;7.63;;;19.10;72.40;;;;;;5075585;28;20217;-87
2022/06/22 08:52:03;;;;;;;15.95;7.68;;;19.40;70.00;;;;;;5075371;28;20191;-86
2022/06/22 08:55:00;;;;;;;18.67;8.35;;;19.60;69.70;;;;;;5075194;28;20356;-88
2022/06/22 08:57:38;;;;;;;13.57;8.13;;;19.60;67.90;;;;;;5078090;28;20203;-88
2022/06/22 09:00:04;;;;;;;18.83;8.13;;;20.00;67.50;;;;;;5079405;28;20187;-88
2022/06/22 09:03:17;;;;;;;12.43;7.43;;;20.30;65.70;;;;;;5075924;28;20702;-87
2022/06/22 09:06:18;;;;;;;10.65;7.18;;;20.20;64.80;;;;;;5073039;28;20218;-87
2022/06/22 09:08:52;;;;;;;11.43;6.65;;;20.50;66.20;;;;;;5056058;28;20163;-87
2022/06/22 09:11:30;;;;;;;12.77;7.20;;;20.60;65.90;;;;;;5074196;28;20336;-87
2022/06/22 09:14:26;;;;;;;14.73;7.82;;;20.50;66.30;;;;;;5075731;28;20613;-86
2022/06/22 09:17:23;;;;;;;14.27;7.28;;;20.20;68.30;;;;;;5074990;28;20610;-87
2022/06/22 09:20:17;;;;;;;10.70;7.15;;;20.10;67.50;;;;;;5075103;28;20573;-87
2022/06/22 09:22:51;;;;;;;12.40;6.63;;;20.10;65.90;;;;;;5074979;28;20160;-85
2022/06/22 09:25:37;;;;;;;14.20;6.50;;;20.60;63.50;;;;;;5074423;28;20177;-86
2022/06/22 09:28:15;;;;;;;14.07;6.85;;;20.80;63.30;;;;;;5074489;28;20160;-87
2022/06/22 09:31:08;;;;;;;14.88;6.50;;;21.00;62.90;;;;;;5073310;28;20230;-88
2022/06/22 09:33:46;;;;;;;9.98;6.00;;;21.20;61.00;;;;;;5074528;28;20188;-87
2022/06/22 09:36:39;;;;;;;10.25;6.43;;;21.40;61.80;;;;;;5074497;28;20244;-85
2022/06/22 09:39:24;;;;;;;11.73;6.45;;;20.90;63.30;;;;;;5074303;28;20148;-85
2022/06/22 09:42:22;;;;;;;12.38;6.45;;;20.30;63.70;;;;;;5074239;28;20187;-86
2022/06/22 09:45:08;;;;;;;14.02;6.82;;;20.70;65.30;;;;;;5077643;28;20665;-87
2022/06/22 09:47:52;;;;;;;12.30;6.15;;;21.20;65.80;;;;;;5081430;28;20158;-87
2022/06/22 09:50:48;;;;;;;9.02;6.45;;;21.30;63.90;;;;;;5080190;28;20183;-87
2022/06/22 09:53:32;;;;;;;18.83;10.68;;;20.80;59.70;;;;;;5077763;28;20184;-88
2022/06/22 09:56:27;;;;;;;12.73;5.75;;;21.00;63.30;;;;;;5075728;28;20159;-86
2022/06/22 09:59:32;;;;;;;13.85;6.38;;;21.50;63.40;;;;;;5077114;28;20175;-86
2022/06/22 10:02:22;;;;;;;12.75;6.57;;;21.50;61.50;;;;;;5074765;28;20183;-86
2022/06/22 10:05:06;;;;;;;11.30;5.10;;;21.70;63.10;;;;;;5079061;28;20609;-87
2022/06/22 10:07:37;;;;;;;9.18;5.10;;;22.10;62.20;;;;;;5081023;28;20160;-89
2022/06/22 10:10:24;;;;;;;11.23;5.40;;;22.50;61.40;;;;;;5080121;28;20191;-86
2022/06/22 10:13:24;;;;;;;11.65;5.10;;;22.80;59.40;;;;;;5078955;28;20288;-86
2022/06/22 10:16:25;;;;;;;11.25;5.45;;;23.00;58.10;;;;;;5074700;28;20164;-87
2022/06/22 10:19:03;;;;;;;13.57;5.20;;;23.30;55.10;;;;;;5074780;28;20179;-86
2022/06/22 10:22:00;;;;;;;10.02;4.82;;;22.90;58.10;;;;;;5074119;28;20199;-85
2022/06/22 10:24:53;;;;;;;10.23;4.93;;;23.00;56.90;;;;;;5074072;28;20205;-86
2022/06/22 10:27:37;;;;;;;8.52;4.60;;;22.90;54.80;;;;;;5074028;28;20252;-86
2022/06/22 10:30:24;;;;;;;12.05;5.00;;;23.20;54.90;;;;;;5073954;28;20274;-86
2022/06/22 10:33:10;;;;;;;7.97;5.05;;;22.60;58.00;;;;;;5073686;28;20628;-85
2022/06/22 10:35:58;;;;;;;10.90;4.57;;;22.40;58.60;;;;;;5073213;28;20155;-84
2022/06/22 10:38:46;;;;;;;10.85;4.38;;;22.70;57.50;;;;;;5073172;28;20148;-86
2022/06/22 10:47:58;;;;;;;10.68;4.85;;;23.30;55.70;;;;;;5074215;28;20159;-86
2022/06/22 10:50:29;;;;;;;10.73;4.20;;;23.20;54.10;;;;;;5072157;28;20194;-86
2022/06/22 10:53:28;;;;;;;11.65;4.78;;;23.20;55.60;;;;;;5074307;28;20174;-86
2022/06/22 10:56:00;;;;;;;8.93;4.22;;;23.30;53.80;;;;;;5077480;28;20186;-85
2022/06/22 10:59:00;;;;;;;9.80;4.57;;;23.70;54.30;;;;;;5079134;28;20183;-86
2022/06/22 11:02:03;;;;;;;9.50;4.35;;;23.30;55.60;;;;;;5075919;28;20756;-86
2022/06/22 11:05:11;;;;;;;7.70;3.95;;;23.40;56.60;;;;;;5081080;28;20640;-86
2022/06/22 11:07:39;;;;;;;11.10;3.97;;;23.40;54.60;;;;;;5079433;28;20238;-85
2022/06/22 11:10:41;;;;;;;5.28;3.10;;;24.00;53.20;;;;;;5077495;28;20199;-85
2022/06/22 11:13:34;;;;;;;10.05;3.50;;;23.30;54.90;;;;;;5077706;28;20159;-84
2022/06/22 11:16:17;;;;;;;6.90;3.50;;;23.20;52.10;;;;;;5078537;28;20164;-87
2022/06/22 11:18:45;;;;;;;7.03;3.10;;;23.60;52.20;;;;;;5080971;28;20216;-87
2022/06/22 11:21:26;;;;;;;8.93;3.25;;;23.80;51.20;;;;;;5078473;28;20206;-88
2022/06/22 11:24:14;;;;;;;9.50;3.53;;;23.90;50.70;;;;;;5079209;28;20250;-88
2022/06/22 11:33:33;;;;;;;7.55;3.20;;;24.20;49.00;;;;;;5078332;28;20162;-87
2022/06/22 11:36:01;;;;;;;8.13;2.83;;;24.00;50.20;;;;;;5075761;28;20183;-87
2022/06/22 11:38:41;;;;;;;12.50;3.80;;;24.50;48.90;;;;;;5081694;28;20226;-87
2022/06/22 11:41:41;;;;;;;7.82;2.97;;;24.30;49.20;;;;;;5079174;28;20199;-87
2022/06/22 11:44:36;;;;;;;9.00;2.50;;;24.20;47.70;;;;;;5079459;28;20168;-87
2022/06/22 11:47:12;;;;;;;7.30;2.83;;;23.70;47.80;;;;;;5078315;28;20172;-87
2022/06/22 11:49:56;;;;;;;5.25;2.53;;;24.30;50.00;;;;;;5077579;28;20194;-87
2022/06/22 11:52:27;;;;;;;7.68;3.33;;;24.60;47.20;;;;;;5078078;28;20159;-84
2022/06/22 11:55:23;;;;;;;6.18;2.60;;;25.10;46.40;;;;;;5077194;28;20197;-87
2022/06/22 11:58:12;;;;;;;5.53;1.88;;;24.30;46.70;;;;;;5077222;28;20548;-87
2022/06/22 12:00:53;;;;;;;11.90;2.85;;;24.60;46.30;;;;;;5077260;28;20199;-87
2022/06/22 12:03:40;;;;;;;11.75;2.40;;;24.80;46.50;;;;;;5076942;28;20626;-87
2022/06/22 12:06:41;;;;;;;3.58;2.15;;;25.20;46.10;;;;;;5076706;28;20255;-86
2022/06/22 12:09:17;;;;;;;5.43;2.70;;;25.00;47.20;;;;;;5076938;28;20155;-87
2022/06/22 12:12:31;;;;;;;6.07;2.95;;;25.20;46.80;;;;;;5077643;28;20245;-87
2022/06/22 12:15:34;;;;;;;9.32;2.90;;;24.70;46.80;;;;;;5075130;28;20194;-87
2022/06/22 12:18:39;;;;;;;5.50;2.80;;;25.30;47.70;;;;;;5076097;28;20186;-85
2022/06/22 12:21:37;;;;;;;8.68;3.63;;;25.40;45.10;;;;;;5075413;28;20219;-87
2022/06/22 12:24:20;;;;;;;6.93;2.80;;;25.60;44.00;;;;;;5076669;28;20162;-87
2022/06/22 12:27:17;;;;;;;4.88;2.42;;;25.70;44.90;;;;;;5077153;28;20156;-87
2022/06/22 12:29:54;;;;;;;7.53;2.72;;;25.40;46.30;;;;;;5076494;28;20214;-87
2022/06/22 12:32:34;;;;;;;9.73;3.45;;;25.20;47.30;;;;;;5077795;28;20238;-88
2022/06/22 12:35:20;;;;;;;8.60;3.08;;;24.70;49.00;;;;;;5078677;28;20176;-88
2022/06/22 12:38:02;;;;;;;7.78;3.15;;;25.10;46.60;;;;;;5079216;28;20680;-88
2022/06/22 12:40:55;;;;;;;6.15;2.90;;;24.50;47.20;;;;;;5080547;28;20202;-88
2022/06/22 12:43:55;;;;;;;7.53;2.97;;;25.20;44.90;;;;;;5078340;28;20649;-88
2022/06/22 12:46:42;;;;;;;9.98;2.97;;;25.30;47.20;;;;;;5080946;28;20159;-87
2022/06/22 12:49:31;;;;;;;7.68;2.70;;;25.30;46.70;;;;;;5083996;28;20167;-87
2022/06/22 12:52:07;;;;;;;7.25;2.60;;;25.30;45.70;;;;;;5081408;28;20159;-88
2022/06/22 12:54:46;;;;;;;6.40;3.00;;;24.80;48.30;;;;;;5079072;28;20156;-88
2022/06/22 12:57:18;;;;;;;9.70;2.70;;;25.20;46.10;;;;;;5078695;28;20237;-88
2022/06/22 12:59:56;;;;;;;9.52;2.80;;;25.60;46.80;;;;;;5079020;28;20191;-89
2022/06/22 13:02:28;;;;;;;8.68;2.72;;;25.70;45.80;;;;;;5079967;28;20206;-88
2022/06/22 13:04:59;;;;;;;6.07;2.75;;;25.80;45.00;;;;;;5076980;28;20191;-88
2022/06/22 13:07:25;;;;;;;4.75;2.30;;;25.80;45.30;;;;;;5077927;28;20186;-88
2022/06/22 13:09:52;;;;;;;7.00;2.55;;;26.20;45.60;;;;;;5076823;28;20669;-88
2022/06/22 13:12:33;;;;;;;4.82;2.08;;;26.30;44.40;;;;;;5079114;28;20597;-89
2022/06/22 13:15:30;;;;;;;5.30;2.17;;;26.40;45.70;;;;;;5077500;28;20262;-87
2022/06/22 13:18:24;;;;;;;5.50;2.30;;;26.50;45.00;;;;;;5076799;28;20553;-87
2022/06/22 13:21:16;;;;;;;7.57;2.20;;;25.60;46.80;;;;;;5077273;28;20199;-88
2022/06/22 13:24:16;;;;;;;7.75;2.42;;;26.10;46.90;;;;;;5077010;28;20148;-88
2022/06/22 13:26:50;;;;;;;10.38;2.80;;;26.20;45.40;;;;;;5074948;28;20540;-86
2022/06/22 13:29:49;;;;;;;6.90;2.40;;;26.10;45.30;;;;;;5075346;28;20159;-88
2022/06/22 13:32:17;;;;;;;7.32;2.42;;;24.70;49.80;;;;;;5074812;28;20163;-86
2022/06/22 13:34:52;;;;;;;14.68;3.15;;;25.30;48.60;;;;;;5074598;28;20543;-86
2022/06/22 13:37:56;;;;;;;6.63;2.45;;;24.90;48.70;;;;;;5074623;28;20514;-86
2022/06/22 13:40:32;;;;;;;6.47;2.15;;;25.50;48.60;;;;;;5072546;28;20573;-85
2022/06/22 13:43:12;;;;;;;11.00;2.65;;;25.90;47.60;;;;;;5074522;28;20170;-87
2022/06/22 13:45:56;;;;;;;8.60;2.65;;;26.30;46.00;;;;;;5074073;28;20151;-87
2022/06/22 13:48:57;;;;;;;5.00;2.08;;;26.50;44.70;;;;;;5074223;28;20156;-85
2022/06/22 13:51:40;;;;;;;7.55;2.20;;;25.30;47.20;;;;;;5073924;28;20274;-86
2022/06/22 13:54:45;;;;;;;6.28;2.20;;;25.80;47.40;;;;;;5074395;28;20239;-86
2022/06/22 13:57:22;;;;;;;5.18;2.00;;;24.70;47.80;;;;;;5073788;28;20668;-85
2022/06/22 14:00:13;;;;;;;6.57;1.95;;;25.70;46.00;;;;;;5076424;28;20202;-87
2022/06/22 14:03:03;;;;;;;4.10;1.90;;;25.20;46.20;;;;;;5074844;28;20198;-86